Time;durP1;ratioP1;P1;durP2;ratioP2;P2;SDS_P1;SDS_P2;PMS_P1;PMS_P2;Temp;Humidity;BMP_temperature;BMP_pressure;BME280_temperature;BME280_humidity;BME280_pressure;Samples;Min_cycle;Max_cycle;Signal;HPM_P1;HPM_P2
2021/10/16 00:01:49;;;;;;;1.90;1.80;;;;;;;;;;5016198;28;20212;-42
2021/10/16 00:04:15;;;;;;;2.67;1.80;;;;;;;;;;5015332;28;20238;-42
2021/10/16 00:06:41;;;;;;;1.60;1.50;;;;;;;;;;5015394;28;20422;-42
2021/10/16 00:09:07;;;;;;;1.77;1.67;;;;;;;;;;5014347;28;20196;-42
2021/10/16 00:11:33;;;;;;;1.77;1.67;;;;;;;;;;5016705;28;20169;-42
2021/10/16 00:13:59;;;;;;;1.67;1.35;;;;;;;;;;5029314;28;20540;-42
2021/10/16 00:16:25;;;;;;;2.10;1.50;;;;;;;;;;5037439;28;20211;-42
2021/10/16 00:18:51;;;;;;;1.70;1.60;;;;;;;;;;5026873;28;20301;-42
2021/10/16 00:21:18;;;;;;;1.85;1.55;;;;;;;;;;5036987;28;20176;-42
2021/10/16 00:23:46;;;;;;;1.63;1.52;;;;;;;;;;5036769;28;20183;-42
2021/10/16 00:26:12;;;;;;;2.47;1.50;;;;;;;;;;5037149;28;20178;-42
2021/10/16 00:28:38;;;;;;;1.42;1.33;;;;;;;;;;5024884;28;20180;-42
2021/10/16 00:31:04;;;;;;;1.73;1.63;;;;;;;;;;5029584;28;20714;-42
2021/10/16 00:33:30;;;;;;;1.60;1.50;;;;;;;;;;5036747;28;20182;-42
2021/10/16 00:35:56;;;;;;;1.73;1.63;;;;;;;;;;5028067;28;20212;-42
2021/10/16 00:38:22;;;;;;;2.08;1.70;;;;;;;;;;5019890;28;20518;-42
2021/10/16 00:40:48;;;;;;;2.05;1.73;;;;;;;;;;5017357;28;20156;-42
2021/10/16 00:43:14;;;;;;;1.48;1.30;;;;;;;;;;5025926;28;20620;-42
2021/10/16 00:45:40;;;;;;;1.70;1.40;;;;;;;;;;5017638;28;20186;-42
2021/10/16 00:48:06;;;;;;;1.60;1.50;;;;;;;;;;5017628;28;20176;-42
2021/10/16 00:50:32;;;;;;;1.65;1.52;;;;;;;;;;5017347;28;20536;-42
2021/10/16 00:52:58;;;;;;;2.03;1.70;;;;;;;;;;5016740;28;20230;-42
2021/10/16 00:55:24;;;;;;;2.47;1.60;;;;;;;;;;5028648;28;20215;-42
2021/10/16 00:57:51;;;;;;;2.00;1.80;;;;;;;;;;5027655;28;20191;-42
2021/10/16 01:00:17;;;;;;;1.40;1.30;;;;;;;;;;5036212;28;20242;-42
2021/10/16 01:02:43;;;;;;;2.10;1.90;;;;;;;;;;5024099;28;20477;-42
2021/10/16 01:05:10;;;;;;;1.55;1.45;;;;;;;;;;5016912;28;20177;-42
2021/10/16 01:07:36;;;;;;;1.40;1.30;;;;;;;;;;5017065;28;20164;-42
2021/10/16 01:10:03;;;;;;;1.58;1.48;;;;;;;;;;5020901;28;20227;-42
2021/10/16 01:12:30;;;;;;;1.60;1.50;;;;;;;;;;5032533;28;20314;-42
2021/10/16 01:14:57;;;;;;;1.95;1.50;;;;;;;;;;5018534;28;20464;-42
2021/10/16 01:17:24;;;;;;;1.58;1.48;;;;;;;;;;5017242;28;20187;-42
2021/10/16 01:19:55;;;;;;;1.60;1.50;;;;;;;;;;5016634;28;20196;-42
2021/10/16 01:22:22;;;;;;;1.75;1.50;;;;;;;;;;5034952;28;20195;-42
2021/10/16 01:24:49;;;;;;;1.63;1.52;;;;;;;;;;5026335;28;20184;-42
2021/10/16 01:27:15;;;;;;;1.48;1.38;;;;;;;;;;5024013;28;20454;-42
2021/10/16 01:29:41;;;;;;;2.03;1.40;;;;;;;;;;5022228;28;20237;-42
2021/10/16 01:32:08;;;;;;;1.73;1.63;;;;;;;;;;5035716;28;20198;-42
2021/10/16 01:34:34;;;;;;;1.40;1.30;;;;;;;;;;5034593;28;20199;-42
2021/10/16 01:37:00;;;;;;;1.63;1.52;;;;;;;;;;5031575;28;20192;-42
2021/10/16 01:39:26;;;;;;;1.90;1.55;;;;;;;;;;5030636;28;20219;-42
2021/10/16 01:41:52;;;;;;;1.48;1.38;;;;;;;;;;5024251;28;20204;-42
2021/10/16 01:44:18;;;;;;;1.20;1.10;;;;;;;;;;5016184;28;20193;-42
2021/10/16 01:46:44;;;;;;;1.50;1.40;;;;;;;;;;5016107;28;20188;-42
2021/10/16 01:49:11;;;;;;;1.52;1.42;;;;;;;;;;5017325;28;20578;-42
2021/10/16 01:51:38;;;;;;;1.40;1.30;;;;;;;;;;5018574;28;20212;-42
2021/10/16 01:54:04;;;;;;;1.55;1.38;;;;;;;;;;5022640;28;20222;-42
2021/10/16 01:56:30;;;;;;;1.60;1.48;;;;;;;;;;5016064;28;20508;-42
2021/10/16 01:58:56;;;;;;;1.55;1.45;;;;;;;;;;5015968;28;20192;-42
2021/10/16 02:01:22;;;;;;;1.50;1.40;;;;;;;;;;5017242;28;20208;-42
2021/10/16 02:03:48;;;;;;;1.70;1.60;;;;;;;;;;5018938;28;20184;-42
2021/10/16 02:06:14;;;;;;;1.52;1.42;;;;;;;;;;5019531;28;20182;-42
2021/10/16 02:08:40;;;;;;;1.52;1.42;;;;;;;;;;5033800;28;20222;-42
2021/10/16 02:11:06;;;;;;;1.70;1.55;;;;;;;;;;5035298;28;20184;-42
2021/10/16 02:13:32;;;;;;;1.25;1.20;;;;;;;;;;5018376;28;20287;-42
2021/10/16 02:15:58;;;;;;;1.20;1.10;;;;;;;;;;5015755;28;20234;-42
2021/10/16 02:18:24;;;;;;;1.58;1.48;;;;;;;;;;5015872;28;20600;-42
2021/10/16 02:20:50;;;;;;;1.42;1.33;;;;;;;;;;5015555;28;20276;-42
2021/10/16 02:23:16;;;;;;;1.30;1.20;;;;;;;;;;5018809;28;20187;-43
2021/10/16 02:25:42;;;;;;;1.83;1.38;;;;;;;;;;5015307;28;20223;-42
2021/10/16 02:28:08;;;;;;;1.75;1.23;;;;;;;;;;5015719;28;20165;-42
2021/10/16 02:30:34;;;;;;;1.30;1.20;;;;;;;;;;5027789;28;20355;-42
2021/10/16 02:33:00;;;;;;;2.28;1.40;;;;;;;;;;5019623;28;20187;-42
2021/10/16 02:35:26;;;;;;;1.45;1.35;;;;;;;;;;5033861;28;20172;-42
2021/10/16 02:37:52;;;;;;;1.85;1.40;;;;;;;;;;5027256;28;20654;-42
2021/10/16 02:40:18;;;;;;;2.55;1.40;;;;;;;;;;5016621;28;20496;-42
2021/10/16 02:42:44;;;;;;;1.40;1.30;;;;;;;;;;5015485;28;20177;-42
2021/10/16 02:45:11;;;;;;;1.55;1.45;;;;;;;;;;5015034;28;20661;-42
2021/10/16 02:47:37;;;;;;;1.50;1.30;;;;;;;;;;5028754;28;20175;-42
2021/10/16 02:50:03;;;;;;;1.80;1.20;;;;;;;;;;5028326;28;20177;-42
2021/10/16 02:52:29;;;;;;;1.35;1.25;;;;;;;;;;5024309;28;20184;-42
2021/10/16 02:54:55;;;;;;;1.30;1.20;;;;;;;;;;5025179;28;20191;-42
2021/10/16 02:57:21;;;;;;;1.40;1.30;;;;;;;;;;5021256;28;20184;-42
2021/10/16 02:59:47;;;;;;;1.30;1.20;;;;;;;;;;5014960;28;20208;-42
2021/10/16 03:02:13;;;;;;;1.23;1.15;;;;;;;;;;5021627;28;20231;-42
2021/10/16 03:04:39;;;;;;;1.30;1.20;;;;;;;;;;5027148;28;20527;-42
2021/10/16 03:07:05;;;;;;;1.35;1.15;;;;;;;;;;5032924;28;20187;-42
2021/10/16 03:09:31;;;;;;;1.40;1.30;;;;;;;;;;5034666;28;20462;-42
2021/10/16 03:11:57;;;;;;;1.23;1.13;;;;;;;;;;5026130;28;20267;-42
2021/10/16 03:14:23;;;;;;;1.10;1.10;;;;;;;;;;5024586;28;20227;-42
2021/10/16 03:16:50;;;;;;;1.63;1.10;;;;;;;;;;5034424;28;20591;-42
2021/10/16 03:19:16;;;;;;;1.48;1.38;;;;;;;;;;5033530;28;20562;-42
2021/10/16 03:21:42;;;;;;;1.48;1.38;;;;;;;;;;5033731;28;20198;-42
2021/10/16 03:24:08;;;;;;;1.23;1.20;;;;;;;;;;5027403;28;20184;-42
2021/10/16 03:26:34;;;;;;;1.30;1.20;;;;;;;;;;5014668;28;20172;-42
2021/10/16 03:29:00;;;;;;;1.15;1.10;;;;;;;;;;5016981;28;20618;-42
2021/10/16 03:31:26;;;;;;;1.40;1.30;;;;;;;;;;5019699;28;20207;-42
2021/10/16 03:33:52;;;;;;;1.35;1.25;;;;;;;;;;5022700;28;20572;-42
2021/10/16 03:36:18;;;;;;;1.30;1.20;;;;;;;;;;5025608;28;20216;-42
2021/10/16 03:38:44;;;;;;;1.10;1.05;;;;;;;;;;5020489;28;20584;-42
2021/10/16 03:41:10;;;;;;;1.00;1.00;;;;;;;;;;5020669;28;20180;-42
2021/10/16 03:43:36;;;;;;;1.25;1.15;;;;;;;;;;5024163;28;20279;-42
2021/10/16 03:46:02;;;;;;;1.30;1.20;;;;;;;;;;5023626;28;20209;-42
2021/10/16 03:48:28;;;;;;;1.38;1.27;;;;;;;;;;5036150;28;20219;-42
2021/10/16 03:50:54;;;;;;;0.95;0.88;;;;;;;;;;5030563;28;20212;-42
2021/10/16 03:53:20;;;;;;;1.30;1.20;;;;;;;;;;5030862;28;20176;-42
2021/10/16 03:55:46;;;;;;;2.97;1.30;;;;;;;;;;5030672;28;20427;-42
2021/10/16 03:58:12;;;;;;;1.75;1.10;;;;;;;;;;5022135;28;20211;-42
2021/10/16 04:00:39;;;;;;;1.20;1.10;;;;;;;;;;5018312;28;20604;-42
2021/10/16 04:03:06;;;;;;;1.25;1.17;;;;;;;;;;5021897;28;20203;-42
2021/10/16 04:05:35;;;;;;;1.65;1.23;;;;;;;;;;5035453;28;20241;-42
2021/10/16 04:08:01;;;;;;;2.10;1.55;;;;;;;;;;5038023;28;20190;-42
2021/10/16 04:10:27;;;;;;;4.30;1.70;;;;;;;;;;5026324;28;20602;-42
2021/10/16 04:12:53;;;;;;;4.30;1.60;;;;;;;;;;5028122;28;20190;-42
2021/10/16 04:15:19;;;;;;;3.72;1.85;;;;;;;;;;5036531;28;20183;-42
2021/10/16 04:17:45;;;;;;;2.35;1.73;;;;;;;;;;5036660;28;20286;-42
2021/10/16 04:20:13;;;;;;;3.50;1.88;;;;;;;;;;5037277;28;20199;-42
2021/10/16 04:22:39;;;;;;;2.67;1.60;;;;;;;;;;5033351;28;20183;-42
2021/10/16 04:25:05;;;;;;;2.95;1.45;;;;;;;;;;5017219;28;20204;-42
2021/10/16 04:27:31;;;;;;;3.20;2.00;;;;;;;;;;5017914;28;20168;-42
2021/10/16 04:29:57;;;;;;;3.15;1.73;;;;;;;;;;5027576;28;20195;-42
2021/10/16 04:32:23;;;;;;;2.17;1.60;;;;;;;;;;5023953;28;20192;-42
2021/10/16 04:34:49;;;;;;;3.45;1.83;;;;;;;;;;5034551;28;20225;-42
2021/10/16 04:37:15;;;;;;;2.20;1.58;;;;;;;;;;5017707;28;20183;-42
2021/10/16 04:39:41;;;;;;;2.42;1.50;;;;;;;;;;5018610;28;20212;-42
2021/10/16 04:42:11;;;;;;;2.13;1.70;;;;;;;;;;5018740;28;20200;-42
2021/10/16 04:44:37;;;;;;;3.72;1.85;;;;;;;;;;5018698;28;20192;-42
2021/10/16 04:47:04;;;;;;;2.95;1.70;;;;;;;;;;5035704;28;20184;-42
2021/10/16 04:49:30;;;;;;;2.05;1.67;;;;;;;;;;5037185;28;20168;-42
2021/10/16 04:51:56;;;;;;;2.05;1.35;;;;;;;;;;5036334;28;20611;-42
2021/10/16 04:54:22;;;;;;;1.80;1.50;;;;;;;;;;5021961;28;20263;-42
2021/10/16 04:56:48;;;;;;;4.30;1.70;;;;;;;;;;5016105;28;20192;-42
2021/10/16 04:59:14;;;;;;;2.03;1.40;;;;;;;;;;5016940;28;20681;-42
2021/10/16 05:01:40;;;;;;;1.88;1.48;;;;;;;;;;5021037;28;20200;-42
2021/10/16 05:04:06;;;;;;;2.22;1.60;;;;;;;;;;5026620;28;20176;-42
2021/10/16 05:06:33;;;;;;;2.60;1.65;;;;;;;;;;5016944;28;20176;-42
2021/10/16 05:08:59;;;;;;;1.88;1.50;;;;;;;;;;5027046;28;20211;-42
2021/10/16 05:11:25;;;;;;;1.73;1.50;;;;;;;;;;5023421;28;20193;-42
2021/10/16 05:13:51;;;;;;;2.00;1.35;;;;;;;;;;5019797;28;20189;-42
2021/10/16 05:16:17;;;;;;;2.38;1.60;;;;;;;;;;5028639;28;20187;-42
2021/10/16 05:18:43;;;;;;;3.85;1.60;;;;;;;;;;5035685;28;20208;-42
2021/10/16 05:21:09;;;;;;;1.60;1.38;;;;;;;;;;5036143;28;20187;-42
2021/10/16 05:23:35;;;;;;;1.42;1.33;;;;;;;;;;5030680;28;20179;-42
2021/10/16 05:26:01;;;;;;;1.90;1.50;;;;;;;;;;5035882;28;20471;-42
2021/10/16 05:28:28;;;;;;;2.17;1.70;;;;;;;;;;5034681;28;20559;-42
2021/10/16 05:30:54;;;;;;;1.70;1.50;;;;;;;;;;5024877;28;20559;-42
2021/10/16 05:33:20;;;;;;;1.75;1.60;;;;;;;;;;5033753;28;20194;-42
2021/10/16 05:35:46;;;;;;;1.50;1.40;;;;;;;;;;5025713;28;20194;-42
2021/10/16 05:38:12;;;;;;;1.95;1.55;;;;;;;;;;5016499;28;20618;-42
2021/10/16 05:40:38;;;;;;;1.60;1.50;;;;;;;;;;5017602;28;20259;-42
2021/10/16 05:43:04;;;;;;;1.52;1.42;;;;;;;;;;5020466;28;20744;-42
2021/10/16 05:45:30;;;;;;;2.97;1.70;;;;;;;;;;5016366;28;20212;-42
2021/10/16 05:47:56;;;;;;;2.25;1.70;;;;;;;;;;5016316;28;20408;-42
2021/10/16 05:50:22;;;;;;;1.88;1.55;;;;;;;;;;5017358;28;20180;-42
2021/10/16 05:52:48;;;;;;;1.77;1.50;;;;;;;;;;5029033;28;20183;-42
2021/10/16 05:55:14;;;;;;;2.08;1.83;;;;;;;;;;5021373;28;20491;-42
2021/10/16 05:57:40;;;;;;;1.60;1.40;;;;;;;;;;5020359;28;20246;-42
2021/10/16 06:00:06;;;;;;;3.17;1.75;;;;;;;;;;5015730;28;20239;-42
2021/10/16 06:02:33;;;;;;;2.20;1.80;;;;;;;;;;5018861;28;20175;-42
2021/10/16 06:04:58;;;;;;;1.90;1.60;;;;;;;;;;5016150;28;20192;-42
2021/10/16 06:07:24;;;;;;;2.40;1.50;;;;;;;;;;5019396;28;20180;-42
2021/10/16 06:09:51;;;;;;;2.22;1.85;;;;;;;;;;5032782;28;20180;-42
2021/10/16 06:12:17;;;;;;;1.73;1.45;;;;;;;;;;5034284;28;20180;-42
2021/10/16 06:14:43;;;;;;;1.77;1.50;;;;;;;;;;5023946;28;20183;-42
2021/10/16 06:17:09;;;;;;;1.55;1.35;;;;;;;;;;5030458;28;20187;-42
2021/10/16 06:19:35;;;;;;;1.95;1.73;;;;;;;;;;5030888;28;20242;-42
2021/10/16 06:22:01;;;;;;;1.60;1.50;;;;;;;;;;5032005;28;20179;-42
2021/10/16 06:24:27;;;;;;;1.67;1.30;;;;;;;;;;5020117;28;20475;-42
2021/10/16 06:26:53;;;;;;;4.28;1.55;;;;;;;;;;5028051;28;20184;-42
2021/10/16 06:29:19;;;;;;;1.35;1.25;;;;;;;;;;5026925;28;20180;-42
2021/10/16 06:31:45;;;;;;;2.03;1.40;;;;;;;;;;5029412;28;20184;-42
2021/10/16 06:34:11;;;;;;;2.33;1.50;;;;;;;;;;5029773;28;20209;-42
2021/10/16 06:36:37;;;;;;;3.88;1.48;;;;;;;;;;5033924;28;20176;-42
2021/10/16 06:39:03;;;;;;;2.28;1.35;;;;;;;;;;5034627;28;20199;-42
2021/10/16 06:41:29;;;;;;;1.98;1.60;;;;;;;;;;5031595;28;20177;-42
2021/10/16 06:43:55;;;;;;;1.95;1.42;;;;;;;;;;5020938;28;20208;-42
2021/10/16 06:46:21;;;;;;;3.10;1.80;;;;;;;;;;5023883;28;20207;-42
2021/10/16 06:48:47;;;;;;;2.67;1.95;;;;;;;;;;5033787;28;20183;-42
2021/10/16 06:51:13;;;;;;;3.60;1.67;;;;;;;;;;5024458;28;20589;-42
2021/10/16 06:53:39;;;;;;;1.83;1.38;;;;;;;;;;5025128;28;20277;-42
2021/10/16 06:56:05;;;;;;;3.28;1.48;;;;;;;;;;5014837;28;20219;-42
2021/10/16 06:58:31;;;;;;;4.00;1.63;;;;;;;;;;5015212;28;20482;-42
2021/10/16 07:00:57;;;;;;;4.00;1.67;;;;;;;;;;5015264;28;20306;-42
2021/10/16 07:03:24;;;;;;;1.65;1.55;;;;;;;;;;5023848;28;20175;-42
2021/10/16 07:05:50;;;;;;;2.85;1.80;;;;;;;;;;5028050;28;20187;-42
2021/10/16 07:08:16;;;;;;;1.77;1.67;;;;;;;;;;5015256;28;20172;-42
2021/10/16 07:10:42;;;;;;;3.75;1.90;;;;;;;;;;5015960;28;20173;-42
2021/10/16 07:13:09;;;;;;;4.78;1.35;;;;;;;;;;5019869;28;20191;-42
2021/10/16 07:15:35;;;;;;;2.30;1.80;;;;;;;;;;5015150;28;20177;-42
2021/10/16 07:18:01;;;;;;;4.22;1.80;;;;;;;;;;5014994;28;20451;-42
2021/10/16 07:20:27;;;;;;;3.30;1.63;;;;;;;;;;5014357;28;20208;-42
2021/10/16 07:22:54;;;;;;;4.93;1.75;;;;;;;;;;5018783;28;20177;-44
2021/10/16 07:25:20;;;;;;;4.32;2.05;;;;;;;;;;5014699;28;20187;-42
2021/10/16 07:27:46;;;;;;;4.22;1.90;;;;;;;;;;5030330;28;20184;-45
2021/10/16 07:30:12;;;;;;;5.88;1.80;;;;;;;;;;5032524;28;20286;-45
2021/10/16 07:32:38;;;;;;;4.43;1.80;;;;;;;;;;5032367;28;20191;-43
2021/10/16 07:35:05;;;;;;;3.97;1.73;;;;;;;;;;5030314;28;20439;-43
2021/10/16 07:37:30;;;;;;;4.68;1.88;;;;;;;;;;5014809;28;20215;-45
2021/10/16 07:39:56;;;;;;;5.60;1.75;;;;;;;;;;5027085;28;20246;-42
2021/10/16 07:42:22;;;;;;;4.50;1.80;;;;;;;;;;5018249;28;20193;-43
2021/10/16 07:44:48;;;;;;;1.70;1.60;;;;;;;;;;5014240;28;20212;-47
2021/10/16 07:47:14;;;;;;;3.33;1.55;;;;;;;;;;5014616;28;20242;-45
2021/10/16 07:49:40;;;;;;;2.28;1.55;;;;;;;;;;5024380;28;20176;-42
2021/10/16 07:52:06;;;;;;;3.17;1.83;;;;;;;;;;5033883;28;20199;-47
2021/10/16 07:54:32;;;;;;;3.08;1.60;;;;;;;;;;5032664;28;20572;-41
2021/10/16 07:57:01;;;;;;;3.20;1.90;;;;;;;;;;5033907;28;20187;-43
2021/10/16 07:59:27;;;;;;;4.18;1.88;;;;;;;;;;5025046;28;20208;-43
2021/10/16 08:01:53;;;;;;;1.70;1.40;;;;;;;;;;5014331;28;20219;-46
2021/10/16 08:04:19;;;;;;;2.20;1.45;;;;;;;;;;5013969;28;20219;-46
2021/10/16 08:06:45;;;;;;;2.75;1.92;;;;;;;;;;5013962;28;20191;-42
2021/10/16 08:09:11;;;;;;;4.53;1.60;;;;;;;;;;5014672;28;20612;-45
2021/10/16 08:11:37;;;;;;;2.47;1.95;;;;;;;;;;5015433;28;20188;-43
2021/10/16 08:14:03;;;;;;;4.35;1.58;;;;;;;;;;5020133;28;20184;-45
2021/10/16 08:16:29;;;;;;;3.38;1.58;;;;;;;;;;5033520;28;20198;-42
2021/10/16 08:18:57;;;;;;;2.65;1.73;;;;;;;;;;5031597;28;20195;-42
2021/10/16 08:21:23;;;;;;;3.47;1.60;;;;;;;;;;5033482;28;20253;-49
2021/10/16 08:23:49;;;;;;;2.67;1.75;;;;;;;;;;5033552;28;20178;-43
2021/10/16 08:26:15;;;;;;;2.13;1.50;;;;;;;;;;5031868;28;20694;-42
2021/10/16 08:28:41;;;;;;;1.63;1.30;;;;;;;;;;5032496;28;20666;-42
2021/10/16 08:31:07;;;;;;;2.60;1.40;;;;;;;;;;5034658;28;20206;-44
2021/10/16 08:33:36;;;;;;;3.08;1.50;;;;;;;;;;5036901;28;20191;-41
2021/10/16 08:36:03;;;;;;;4.85;1.40;;;;;;;;;;5026042;28;20196;-45
2021/10/16 08:38:30;;;;;;;2.95;1.40;;;;;;;;;;5031059;28;20218;-47
2021/10/16 08:40:56;;;;;;;2.97;1.48;;;;;;;;;;5036041;28;20595;-42
2021/10/16 08:43:22;;;;;;;2.88;1.30;;;;;;;;;;5037051;28;20536;-49
2021/10/16 08:45:48;;;;;;;3.08;1.60;;;;;;;;;;5036246;28;20168;-50
2021/10/16 08:48:17;;;;;;;2.75;1.77;;;;;;;;;;5036693;28;20717;-51
2021/10/16 08:50:48;;;;;;;3.63;1.73;;;;;;;;;;5034753;28;20271;-50
2021/10/16 08:53:14;;;;;;;3.80;1.77;;;;;;;;;;5035901;28;20176;-50
2021/10/16 08:55:41;;;;;;;3.97;1.60;;;;;;;;;;5032513;28;20172;-49
2021/10/16 08:58:08;;;;;;;6.78;1.60;;;;;;;;;;5037201;28;20164;-49
2021/10/16 09:00:53;;;;;;;5.68;1.88;;;;;;;;;;5033738;28;20235;-49
2021/10/16 09:03:24;;;;;;;4.75;1.67;;;;;;;;;;5035953;28;20180;-50
2021/10/16 09:06:11;;;;;;;9.23;1.83;;;;;;;;;;5026225;28;20213;-50
2021/10/16 09:08:38;;;;;;;5.38;1.70;;;;;;;;;;5016938;28;20195;-49
2021/10/16 09:11:11;;;;;;;6.00;1.90;;;;;;;;;;5017634;28;20184;-49
2021/10/16 09:13:56;;;;;;;6.25;2.00;;;;;;;;;;5016525;28;20176;-50
2021/10/16 09:16:24;;;;;;;2.80;1.70;;;;;;;;;;5027459;28;20202;-49
2021/10/16 09:18:54;;;;;;;5.47;1.88;;;;;;;;;;5034560;28;20583;-49
2021/10/16 09:21:25;;;;;;;4.03;2.03;;;;;;;;;;5036507;28;20172;-49
2021/10/16 09:24:02;;;;;;;3.38;1.80;;;;;;;;;;5034042;28;20180;-49
2021/10/16 09:26:28;;;;;;;4.72;1.90;;;;;;;;;;5019927;28;20571;-50
2021/10/16 09:28:58;;;;;;;4.70;1.83;;;;;;;;;;5019981;28;20208;-50
2021/10/16 09:31:31;;;;;;;7.97;2.10;;;;;;;;;;5016625;28;20181;-49
2021/10/16 09:33:57;;;;;;;3.67;1.80;;;;;;;;;;5034794;28;20187;-49
2021/10/16 09:36:24;;;;;;;5.13;1.95;;;;;;;;;;5022763;28;20177;-49
2021/10/16 09:38:50;;;;;;;2.90;1.77;;;;;;;;;;5018558;28;20477;-50
2021/10/16 09:41:30;;;;;;;7.28;2.28;;;;;;;;;;5023309;28;20211;-50
2021/10/16 09:43:56;;;;;;;2.88;2.00;;;;;;;;;;5017596;28;20176;-49
2021/10/16 09:46:23;;;;;;;4.85;2.20;;;;;;;;;;5036133;28;20160;-50
2021/10/16 09:48:50;;;;;;;4.53;2.28;;;;;;;;;;5033741;28;20263;-49
2021/10/16 09:51:16;;;;;;;4.95;2.40;;;;;;;;;;5034104;28;20195;-49
2021/10/16 09:53:43;;;;;;;4.10;2.33;;;;;;;;;;5034659;28;20408;-49
2021/10/16 09:56:11;;;;;;;4.18;2.42;;;;;;;;;;5026784;28;20215;-49
2021/10/16 09:58:38;;;;;;;5.32;2.30;;;;;;;;;;5035584;28;20192;-49
2021/10/16 10:01:04;;;;;;;2.72;1.95;;;;;;;;;;5033170;28;20194;-51
2021/10/16 10:03:32;;;;;;;3.50;2.22;;;;;;;;;;5035177;28;20439;-50
2021/10/16 10:05:58;;;;;;;2.92;2.05;;;;;;;;;;5035128;28;20192;-49
2021/10/16 10:08:24;;;;;;;5.13;2.25;;;;;;;;;;5035462;28;20179;-50
2021/10/16 10:10:51;;;;;;;3.63;2.00;;;;;;;;;;5033005;28;20578;-49
2021/10/16 10:13:17;;;;;;;5.07;2.03;;;;;;;;;;5029127;28;20258;-50
2021/10/16 10:15:44;;;;;;;2.63;2.10;;;;;;;;;;5015797;28;20177;-49
2021/10/16 10:20:59;;;;;;;5.05;2.20;;;;;;;;;;5017122;28;20246;-49
2021/10/16 10:23:27;;;;;;;4.53;2.25;;;;;;;;;;5015191;28;20650;-50
2021/10/16 10:26:12;;;;;;;3.00;2.00;;;;;;;;;;5015585;28;20169;-49
2021/10/16 10:28:55;;;;;;;3.85;2.15;;;;;;;;;;5015781;28;20271;-50
2021/10/16 10:31:40;;;;;;;2.33;2.10;;;;;;;;;;5015555;28;20188;-50
2021/10/16 10:34:06;;;;;;;3.85;2.05;;;;;;;;;;5024875;28;20203;-50
2021/10/16 10:36:43;;;;;;;2.75;2.05;;;;;;;;;;5020194;28;20215;-50
2021/10/16 10:39:28;;;;;;;2.40;2.03;;;;;;;;;;5016502;28;20473;-50
2021/10/16 10:41:54;;;;;;;2.17;1.98;;;;;;;;;;5015479;28;20177;-49
2021/10/16 10:44:38;;;;;;;2.13;1.92;;;;;;;;;;5015023;28;20177;-51
2021/10/16 10:47:23;;;;;;;2.55;2.00;;;;;;;;;;5015347;28;20456;-49
2021/10/16 10:49:50;;;;;;;2.15;1.90;;;;;;;;;;5017392;28;20462;-50
2021/10/16 10:52:16;;;;;;;2.75;2.15;;;;;;;;;;5015097;28;20196;-50
2021/10/16 10:55:06;;;;;;;3.10;2.03;;;;;;;;;;5022686;28;20175;-50
2021/10/16 10:57:49;;;;;;;3.88;2.30;;;;;;;;;;5032198;28;20265;-49
2021/10/16 11:00:16;;;;;;;3.30;2.13;;;;;;;;;;5032362;28;20510;-50
2021/10/16 11:02:42;;;;;;;3.10;2.00;;;;;;;;;;5026078;28;20232;-51
2021/10/16 11:05:36;;;;;;;3.70;2.00;;;;;;;;;;5022769;28;20210;-50
2021/10/16 11:08:07;;;;;;;1.88;1.77;;;;;;;;;;5014726;28;20665;-49
2021/10/16 11:10:33;;;;;;;2.17;1.98;;;;;;;;;;5028467;28;20233;-49
2021/10/16 11:13:09;;;;;;;2.45;1.90;;;;;;;;;;5033474;28;20503;-50
2021/10/16 11:15:35;;;;;;;2.72;2.10;;;;;;;;;;5033231;28;20187;-49
2021/10/16 11:18:08;;;;;;;3.50;2.00;;;;;;;;;;5034605;28;20188;-50
2021/10/16 11:20:34;;;;;;;3.15;1.90;;;;;;;;;;5032363;28;20286;-50
2021/10/16 11:23:00;;;;;;;2.03;1.80;;;;;;;;;;5022558;28;20267;-50
2021/10/16 11:25:29;;;;;;;2.28;1.70;;;;;;;;;;5034004;28;20179;-50
2021/10/16 11:28:14;;;;;;;3.72;1.85;;;;;;;;;;5024329;28;20184;-50
2021/10/16 11:30:41;;;;;;;3.38;1.98;;;;;;;;;;5026794;28;20602;-50
2021/10/16 11:33:08;;;;;;;2.25;1.60;;;;;;;;;;5019373;28;20318;-50
2021/10/16 11:35:34;;;;;;;2.28;1.92;;;;;;;;;;5029836;28;20234;-49
2021/10/16 11:38:00;;;;;;;1.98;1.75;;;;;;;;;;5024171;28;20510;-49
2021/10/16 11:40:28;;;;;;;2.15;2.00;;;;;;;;;;5024559;28;20214;-49
2021/10/16 11:42:53;;;;;;;1.98;1.70;;;;;;;;;;5014312;28;20184;-49
2021/10/16 11:45:21;;;;;;;2.53;1.60;;;;;;;;;;5018217;28;20229;-49
2021/10/16 11:47:52;;;;;;;2.08;1.70;;;;;;;;;;5025736;28;20172;-49
2021/10/16 11:50:20;;;;;;;2.78;1.90;;;;;;;;;;5023728;28;20175;-49
2021/10/16 11:52:47;;;;;;;2.90;1.70;;;;;;;;;;5026606;28;20180;-50
2021/10/16 11:55:23;;;;;;;3.08;1.98;;;;;;;;;;5023331;28;20172;-49
2021/10/16 11:57:49;;;;;;;2.33;1.80;;;;;;;;;;5022610;28;20176;-49
2021/10/16 12:00:16;;;;;;;2.05;1.65;;;;;;;;;;5024737;28;20231;-49
2021/10/16 12:02:42;;;;;;;2.50;1.95;;;;;;;;;;5014957;28;20165;-49
2021/10/16 12:05:17;;;;;;;2.97;1.90;;;;;;;;;;5033117;28;20207;-49
2021/10/16 12:07:44;;;;;;;2.03;1.55;;;;;;;;;;5030459;28;20172;-49
2021/10/16 12:10:24;;;;;;;1.92;1.73;;;;;;;;;;5026194;28;20271;-50
2021/10/16 12:12:59;;;;;;;3.08;1.83;;;;;;;;;;5024796;28;20184;-50
2021/10/16 12:15:45;;;;;;;2.20;1.70;;;;;;;;;;5023402;28;20509;-49
2021/10/16 12:18:21;;;;;;;2.05;1.85;;;;;;;;;;5023489;28;20207;-49
2021/10/16 12:20:55;;;;;;;1.85;1.55;;;;;;;;;;5024940;28;20180;-49
2021/10/16 12:23:21;;;;;;;2.30;1.58;;;;;;;;;;5017459;28;20264;-49
2021/10/16 12:25:50;;;;;;;2.50;1.75;;;;;;;;;;5024357;28;20180;-49
2021/10/16 12:28:16;;;;;;;1.50;1.40;;;;;;;;;;5021952;28;20186;-49
2021/10/16 12:30:58;;;;;;;1.80;1.50;;;;;;;;;;5020029;28;20191;-49
2021/10/16 12:33:24;;;;;;;1.50;1.40;;;;;;;;;;5028929;28;20199;-49
2021/10/16 12:36:04;;;;;;;1.85;1.40;;;;;;;;;;5028652;28;20219;-49
2021/10/16 12:39:02;;;;;;;1.88;1.55;;;;;;;;;;5029422;28;20191;-49
2021/10/16 12:41:33;;;;;;;2.90;1.77;;;;;;;;;;5014366;28;20701;-50
2021/10/16 12:44:16;;;;;;;2.05;1.40;;;;;;;;;;5032744;28;20571;-50
2021/10/16 12:46:42;;;;;;;1.77;1.67;;;;;;;;;;5036729;28;20199;-49
2021/10/16 12:49:11;;;;;;;2.00;1.55;;;;;;;;;;5019674;28;20599;-50
2021/10/16 12:51:44;;;;;;;2.05;1.40;;;;;;;;;;5030900;28;20581;-49
2021/10/16 12:54:10;;;;;;;1.45;1.35;;;;;;;;;;5025363;28;20267;-49
2021/10/16 12:56:37;;;;;;;3.00;1.88;;;;;;;;;;5034227;28;20303;-49
2021/10/16 12:59:04;;;;;;;3.88;1.98;;;;;;;;;;5033400;28;20234;-49
2021/10/16 13:01:31;;;;;;;3.65;2.35;;;;;;;;;;5027099;28;20458;-49
2021/10/16 13:03:57;;;;;;;6.93;2.67;;;;;;;;;;5034534;28;20295;-50
2021/10/16 13:06:23;;;;;;;7.85;2.70;;;;;;;;;;5030472;28;20215;-49
2021/10/16 13:08:50;;;;;;;5.07;2.35;;;;;;;;;;5034141;28;20484;-49
2021/10/16 13:11:16;;;;;;;8.20;2.30;;;;;;;;;;5019396;28;20208;-49
2021/10/16 13:13:43;;;;;;;4.30;2.10;;;;;;;;;;5021509;28;20206;-49
2021/10/16 13:16:09;;;;;;;2.63;1.98;;;;;;;;;;5025545;28;20194;-49
2021/10/16 13:18:35;;;;;;;6.47;2.40;;;;;;;;;;5026693;28;20606;-49
2021/10/16 13:21:01;;;;;;;6.07;2.28;;;;;;;;;;5019688;28;20181;-49
2021/10/16 13:23:27;;;;;;;5.80;2.17;;;;;;;;;;5034113;28;20194;-49
2021/10/16 13:25:53;;;;;;;9.60;1.80;;;;;;;;;;5019661;28;20190;-49
2021/10/16 13:28:19;;;;;;;5.43;2.08;;;;;;;;;;5025870;28;20172;-49
2021/10/16 13:30:45;;;;;;;3.63;2.00;;;;;;;;;;5022737;28;20183;-49
2021/10/16 13:33:11;;;;;;;6.43;2.20;;;;;;;;;;5031912;28;20231;-49
2021/10/16 13:35:37;;;;;;;4.72;1.67;;;;;;;;;;5029124;28;20423;-49
2021/10/16 13:38:05;;;;;;;3.63;1.92;;;;;;;;;;5028700;28;20196;-49
2021/10/16 13:40:31;;;;;;;5.88;2.38;;;;;;;;;;5016929;28;20207;-49
2021/10/16 13:42:58;;;;;;;4.22;2.05;;;;;;;;;;5033510;28;20187;-49
2021/10/16 13:45:24;;;;;;;4.90;1.77;;;;;;;;;;5036218;28;20555;-49
2021/10/16 13:47:50;;;;;;;6.63;2.03;;;;;;;;;;5019815;28;20542;-49
2021/10/16 13:50:16;;;;;;;4.60;2.05;;;;;;;;;;5017549;28;20638;-49
2021/10/16 13:52:42;;;;;;;6.55;2.20;;;;;;;;;;5016002;28;20172;-49
2021/10/16 13:55:08;;;;;;;2.05;1.50;;;;;;;;;;5024402;28;20555;-49
2021/10/16 13:57:34;;;;;;;3.22;1.80;;;;;;;;;;5027798;28;21490;-49
2021/10/16 14:00:00;;;;;;;12.57;2.50;;;;;;;;;;5034001;28;20210;-49
2021/10/16 14:02:26;;;;;;;15.63;4.18;;;;;;;;;;5018355;28;20188;-49
2021/10/16 14:04:52;;;;;;;12.98;4.20;;;;;;;;;;5021102;28;20183;-49
2021/10/16 14:07:18;;;;;;;11.55;7.20;;;;;;;;;;5023248;28;20278;-49
2021/10/16 14:09:44;;;;;;;11.32;8.35;;;;;;;;;;5015846;28;20179;-49
2021/10/16 14:12:10;;;;;;;9.10;6.35;;;;;;;;;;5034205;28;20179;-49
2021/10/16 14:14:36;;;;;;;10.98;6.32;;;;;;;;;;5031599;28;20476;-49
2021/10/16 14:17:02;;;;;;;7.03;5.43;;;;;;;;;;5026334;28;20183;-49
2021/10/16 14:19:28;;;;;;;7.30;4.57;;;;;;;;;;5017221;28;20211;-49
2021/10/16 14:21:54;;;;;;;6.95;4.22;;;;;;;;;;5029772;28;20236;-50
2021/10/16 14:24:20;;;;;;;5.40;3.60;;;;;;;;;;5015260;28;20425;-49
2021/10/16 14:26:46;;;;;;;4.22;3.58;;;;;;;;;;5020843;28;20177;-49
2021/10/16 14:29:12;;;;;;;5.18;3.40;;;;;;;;;;5022313;28;20250;-49
2021/10/16 14:31:38;;;;;;;7.55;3.30;;;;;;;;;;5024810;28;20195;-49
2021/10/16 14:34:05;;;;;;;6.55;3.50;;;;;;;;;;5034431;28;20443;-50
2021/10/16 14:36:31;;;;;;;5.75;4.18;;;;;;;;;;5028084;28;20195;-50
2021/10/16 14:38:57;;;;;;;24.88;16.70;;;;;;;;;;5027947;28;20590;-50
2021/10/16 14:41:23;;;;;;;271.30;90.63;;;;;;;;;;5034388;28;20191;-50
2021/10/16 14:43:49;;;;;;;314.15;104.90;;;;;;;;;;5033097;28;20171;-51
2021/10/16 14:46:15;;;;;;;308.13;104.57;;;;;;;;;;5023038;28;20284;-50
2021/10/16 14:48:42;;;;;;;261.85;86.72;;;;;;;;;;5025045;28;20218;-51